Mirgab Vi — ZGAO4 — position and weather

sailwx.info

Track history (hours):
 
Tides and Currents Weather Stations Pressure Air Temp Water Temp Dewpoint Dewpoint Depression Visibility Wind Speed Wind Dir Waves Ship Positions

Mirgab Vi

Last reported at 2016-Jul-24 08:33 UTC. Time now 2016-Jul-24 08:51 UTC.
Position N 43°32' E 007°02'.

Length 49 m; draft 2.9 m.

Type: Pleasure craft. MMSI: 319394000.

Date/timePositionNaut miles runAvg speedWind from/ knotsBaromVisibWave heightAir tempDewpointWater temp
2016-Jul-24 08:33N 43°32' E 007°02'0 0.0
2016-Jul-24 07:24N 43°32' E 007°02'0 0.0
2016-Jul-24 06:27N 43°32' E 007°02'0 0.0
2016-Jul-24 05:27N 43°32' E 007°02'0 0.0
2016-Jul-24 04:24N 43°32' E 007°02'0 0.0
2016-Jul-24 03:27N 43°32' E 007°02'0 0.0
2016-Jul-24 02:27N 43°32' E 007°02'0 0.0
2016-Jul-24 01:30N 43°32' E 007°02'0 0.0
2016-Jul-24 00:33N 43°32' E 007°02'0 0.0
2016-Jul-23 23:33N 43°32' E 007°02'0 0.0
2016-Jul-23 22:33N 43°32' E 007°02'0 0.0
2016-Jul-23 21:33N 43°32' E 007°02'0 0.0
2016-Jul-23 20:33N 43°32' E 007°02'0 0.0
2016-Jul-23 19:33N 43°32' E 007°02'0 0.0
2016-Jul-23 18:33N 43°32' E 007°02'0 0.0
2016-Jul-23 17:24N 43°32' E 007°02'0 0.0
2016-Jul-23 16:24N 43°32' E 007°02'0 0.0
2016-Jul-23 15:27N 43°32' E 007°02'0 0.0
2016-Jul-23 14:31N 43°32' E 007°02'3 3.0
2016-Jul-23 13:33N 43°30' E 007°05'3 2.8
2016-Jul-23 12:21N 43°34' E 007°06'0 0.0
2016-Jul-23 11:33N 43°34' E 007°06'0 0.0
2016-Jul-23 10:33N 43°34' E 007°06'0 0.0
2016-Jul-23 09:33N 43°34' E 007°06'0 0.0
2016-Jul-23 08:33N 43°34' E 007°06'0 0.0
2016-Jul-23 07:27N 43°34' E 007°06'0 0.0
2016-Jul-23 06:33N 43°33' E 007°06'0 0.0
2016-Jul-23 04:21N 43°34' E 007°06'0 0.0
2016-Jul-23 03:27N 43°33' E 007°06'0 0.0
2016-Jul-23 02:33N 43°33' E 007°06'0 0.0
2016-Jul-23 01:33N 43°33' E 007°06'0 0.0
2016-Jul-23 00:33N 43°33' E 007°06'0 0.0
2016-Jul-22 23:33N 43°33' E 007°06'3 2.7
2016-Jul-22 22:34N 43°31' E 007°08'1212.2
2016-Jul-22 21:34N 43°20' E 007°15'1211.9
2016-Jul-22 20:33N 43°09' E 007°22'1212.0
2016-Jul-22 19:34N 42°59' E 007°30'1212.1
2016-Jul-22 18:33N 42°49' E 007°39'1211.7
2016-Jul-22 17:33N 42°39' E 007°48'1211.9
2016-Jul-22 16:32N 42°29' E 007°58'  
2016-Jul-19 09:09N 41°05' E 009°34'3 0.2
2016-Jul-18 14:04N 41°08' E 009°33'4 7.5
2016-Jul-18 13:33N 41°04' E 009°33'2 0.9
2016-Jul-18 11:26N 41°04' E 009°35'  
Track history (hours):
 
Tides and Currents Weather Stations Pressure Air Temp Water Temp Dewpoint Dewpoint Depression Visibility Wind Speed Wind Dir Waves Ship Positions

Mirgab Vi

Last reported at 2016-Jul-24 08:33 UTC. Time now 2016-Jul-24 08:51 UTC.
Position N 43°32' E 007°02'.

Length 49 m; draft 2.9 m.

Type: Pleasure craft. MMSI: 319394000.

Date/timePositionNaut miles runAvg speedWind from/ knotsBaromVisibWave heightAir tempDewpointWater temp
2016-Jul-24 08:33N 43°32' E 007°02'0 0.0
2016-Jul-24 07:24N 43°32' E 007°02'0 0.0
2016-Jul-24 06:27N 43°32' E 007°02'0 0.0
2016-Jul-24 05:27N 43°32' E 007°02'0 0.0
2016-Jul-24 04:24N 43°32' E 007°02'0 0.0
2016-Jul-24 03:27N 43°32' E 007°02'0 0.0
2016-Jul-24 02:27N 43°32' E 007°02'0 0.0
2016-Jul-24 01:30N 43°32' E 007°02'0 0.0
2016-Jul-24 00:33N 43°32' E 007°02'0 0.0
2016-Jul-23 23:33N 43°32' E 007°02'0 0.0
2016-Jul-23 22:33N 43°32' E 007°02'0 0.0
2016-Jul-23 21:33N 43°32' E 007°02'0 0.0
2016-Jul-23 20:33N 43°32' E 007°02'0 0.0
2016-Jul-23 19:33N 43°32' E 007°02'0 0.0
2016-Jul-23 18:33N 43°32' E 007°02'0 0.0
2016-Jul-23 17:24N 43°32' E 007°02'0 0.0
2016-Jul-23 16:24N 43°32' E 007°02'0 0.0
2016-Jul-23 15:27N 43°32' E 007°02'0 0.0
2016-Jul-23 14:31N 43°32' E 007°02'3 3.0
2016-Jul-23 13:33N 43°30' E 007°05'3 2.8
2016-Jul-23 12:21N 43°34' E 007°06'0 0.0
2016-Jul-23 11:33N 43°34' E 007°06'0 0.0
2016-Jul-23 10:33N 43°34' E 007°06'0 0.0
2016-Jul-23 09:33N 43°34' E 007°06'0 0.0
2016-Jul-23 08:33N 43°34' E 007°06'0 0.0
2016-Jul-23 07:27N 43°34' E 007°06'0 0.0
2016-Jul-23 06:33N 43°33' E 007°06'0 0.0
2016-Jul-23 04:21N 43°34' E 007°06'0 0.0
2016-Jul-23 03:27N 43°33' E 007°06'0 0.0
2016-Jul-23 02:33N 43°33' E 007°06'0 0.0
2016-Jul-23 01:33N 43°33' E 007°06'0 0.0
2016-Jul-23 00:33N 43°33' E 007°06'0 0.0
2016-Jul-22 23:33N 43°33' E 007°06'3 2.7
2016-Jul-22 22:34N 43°31' E 007°08'1212.2
2016-Jul-22 21:34N 43°20' E 007°15'1211.9
2016-Jul-22 20:33N 43°09' E 007°22'1212.0
2016-Jul-22 19:34N 42°59' E 007°30'1212.1
2016-Jul-22 18:33N 42°49' E 007°39'1211.7
2016-Jul-22 17:33N 42°39' E 007°48'1211.9
2016-Jul-22 16:32N 42°29' E 007°58'  
2016-Jul-19 09:09N 41°05' E 009°34'3 0.2
2016-Jul-18 14:04N 41°08' E 009°33'4 7.5
2016-Jul-18 13:33N 41°04' E 009°33'2 0.9
2016-Jul-18 11:26N 41°04' E 009°35'  

Dump ship's entire track history